createdAt,value
2022-08-17T00:02:25.994Z,43.82
2022-08-17T00:04:54.297Z,43.54
2022-08-17T00:07:21.284Z,43.76
2022-08-17T00:09:47.863Z,43.39
2022-08-17T00:14:55.052Z,43.47
2022-08-17T00:17:21.707Z,43.80
2022-08-17T00:19:48.216Z,43.59
2022-08-17T00:22:32.650Z,43.52
2022-08-17T00:28:48.429Z,43.60
2022-08-17T00:31:18.664Z,43.72
2022-08-17T00:33:45.599Z,43.75
2022-08-17T00:36:13.848Z,43.82
2022-08-17T00:38:40.425Z,43.42
2022-08-17T00:41:11.856Z,43.80
2022-08-17T00:43:44.178Z,43.68
2022-08-17T00:46:16.584Z,43.80
2022-08-17T00:48:44.131Z,43.61
2022-08-17T00:51:23.485Z,43.49
2022-08-17T00:53:54.416Z,43.82
2022-08-17T00:56:29.887Z,43.67
2022-08-17T00:58:57.293Z,43.72
2022-08-17T01:01:24.987Z,43.62
2022-08-17T01:03:54.261Z,43.61
2022-08-17T01:06:27.781Z,43.65
2022-08-17T01:08:57.953Z,43.67
2022-08-17T01:11:24.856Z,43.54
2022-08-17T01:13:51.502Z,43.52
2022-08-17T01:16:20.364Z,43.72
2022-08-17T01:18:49.266Z,43.71
2022-08-17T01:21:29.437Z,43.54
2022-08-17T01:23:56.158Z,43.72
2022-08-17T01:26:23.278Z,43.93
2022-08-17T01:28:53.700Z,43.52
2022-08-17T01:31:24.170Z,43.66
2022-08-17T01:33:50.967Z,43.76
2022-08-17T01:36:17.756Z,43.61
2022-08-17T01:38:44.262Z,43.71
2022-08-17T01:41:14.476Z,43.82
2022-08-17T01:43:49.521Z,43.66
2022-08-17T01:46:31.009Z,43.82
2022-08-17T01:48:58.342Z,43.93
2022-08-17T01:51:32.826Z,43.75
2022-08-17T01:54:05.072Z,44.00
2022-08-17T01:56:33.726Z,43.86
2022-08-17T01:59:00.320Z,43.83
2022-08-17T02:01:30.659Z,43.89
2022-08-17T02:04:00.426Z,43.94
2022-08-17T02:06:52.721Z,43.80
2022-08-17T02:09:22.345Z,44.31
2022-08-17T02:11:50.808Z,43.95
2022-08-17T02:14:18.053Z,44.10
2022-08-17T02:16:44.543Z,44.02
2022-08-17T02:19:15.674Z,44.23
2022-08-17T02:21:45.523Z,44.18
2022-08-17T02:24:17.802Z,44.19
2022-08-17T02:27:04.793Z,44.18
2022-08-17T02:29:31.528Z,44.09
2022-08-17T02:31:58.616Z,44.16
2022-08-17T02:34:26.305Z,44.08
2022-08-17T02:36:53.403Z,44.34
2022-08-17T02:39:20.191Z,44.18
2022-08-17T02:41:46.763Z,44.53
2022-08-17T02:44:13.602Z,44.20
2022-08-17T02:47:00.655Z,44.29
2022-08-17T02:49:27.122Z,44.38
2022-08-17T02:51:53.625Z,44.29
2022-08-17T02:54:40.076Z,44.59
2022-08-17T02:57:06.592Z,44.59
2022-08-17T02:59:33.082Z,44.41
2022-08-17T03:01:59.653Z,44.33
2022-08-17T03:04:26.269Z,44.63
2022-08-17T03:06:52.809Z,44.68
2022-08-17T03:09:19.380Z,44.41
2022-08-17T03:11:45.867Z,44.56
2022-08-17T03:14:13.126Z,44.42
2022-08-17T03:16:41.411Z,44.66
2022-08-17T03:19:08.962Z,44.35
2022-08-17T03:21:35.560Z,44.47
2022-08-17T03:24:02.479Z,44.50
2022-08-17T03:26:35.430Z,44.75
2022-08-17T03:29:01.923Z,44.46
2022-08-17T03:31:28.493Z,44.67
2022-08-17T03:33:55.136Z,44.51
2022-08-17T03:36:21.616Z,44.71
2022-08-17T03:38:48.099Z,44.63
2022-08-17T03:41:17.704Z,44.41
2022-08-17T03:43:44.203Z,44.55
2022-08-17T03:46:48.984Z,44.46
2022-08-17T03:49:39.815Z,44.42
2022-08-17T03:52:24.809Z,44.41
2022-08-17T03:55:09.797Z,44.50
2022-08-17T03:57:37.067Z,44.69
2022-08-17T04:00:04.920Z,44.37
2022-08-17T04:02:33.721Z,44.35
2022-08-17T04:05:00.487Z,44.66
2022-08-17T04:07:29.869Z,44.44
2022-08-17T04:09:58.087Z,44.62
2022-08-17T04:12:26.331Z,44.71
2022-08-17T04:14:54.972Z,44.89
2022-08-17T04:17:27.823Z,44.87
2022-08-17T04:19:55.339Z,44.95
2022-08-17T04:22:32.089Z,44.78
2022-08-17T04:25:01.774Z,44.90
2022-08-17T04:27:28.274Z,44.64
2022-08-17T04:29:56.070Z,44.65
2022-08-17T04:33:00.608Z,44.67
2022-08-17T04:35:10.126Z,44.94
2022-08-17T04:37:36.643Z,44.79
2022-08-17T04:40:22.494Z,45.00
2022-08-17T04:43:05.600Z,44.72
2022-08-17T04:45:32.693Z,44.86
2022-08-17T04:48:00.968Z,44.73
2022-08-17T04:50:27.736Z,44.73
2022-08-17T04:52:54.315Z,44.98
2022-08-17T04:55:21.198Z,44.93
2022-08-17T04:57:47.963Z,44.92
2022-08-17T05:00:15.045Z,44.66
2022-08-17T05:02:49.788Z,44.82
2022-08-17T05:05:22.135Z,45.14
2022-08-17T05:07:52.456Z,44.90
2022-08-17T05:10:19.807Z,44.95
2022-08-17T05:12:46.329Z,45.22
2022-08-17T05:15:17.269Z,45.20
2022-08-17T05:17:46.926Z,45.07
2022-08-17T05:20:13.476Z,45.32
2022-08-17T05:22:53.485Z,45.04
2022-08-17T05:25:28.524Z,45.20
2022-08-17T05:28:10.932Z,45.07
2022-08-17T05:30:40.122Z,45.23
2022-08-17T05:33:10.197Z,45.09
2022-08-17T05:35:39.559Z,45.39
2022-08-17T05:38:07.936Z,45.38
2022-08-17T05:40:36.312Z,45.10
2022-08-17T05:43:10.998Z,45.41
2022-08-17T05:45:55.191Z,45.41
2022-08-17T05:48:39.706Z,45.41
2022-08-17T05:51:25.683Z,45.43
2022-08-17T05:54:01.200Z,45.42
2022-08-17T05:56:49.624Z,45.49
2022-08-17T06:00:01.059Z,45.48
2022-08-17T06:02:50.792Z,45.29
2022-08-17T06:05:23.574Z,45.40
2022-08-17T06:07:54.300Z,45.51
2022-08-17T06:10:43.635Z,45.60
2022-08-17T06:13:41.239Z,45.56
2022-08-17T06:16:33.656Z,45.66
2022-08-17T06:19:31.862Z,45.61
2022-08-17T06:22:07.080Z,45.70
2022-08-17T06:24:51.386Z,45.33
2022-08-17T06:27:41.810Z,45.76
2022-08-17T06:30:14.084Z,45.68
2022-08-17T06:32:44.772Z,45.88
2022-08-17T06:35:14.036Z,45.72
2022-08-17T06:37:51.895Z,45.69
2022-08-17T06:40:37.466Z,45.65
2022-08-17T06:43:22.641Z,45.71
2022-08-17T06:46:01.693Z,45.92
2022-08-17T06:48:42.652Z,45.88
2022-08-17T06:51:23.864Z,45.97
2022-08-17T06:54:07.014Z,45.98
2022-08-17T06:56:53.248Z,45.96
2022-08-17T06:59:26.649Z,46.03
2022-08-17T07:02:18.896Z,45.93
2022-08-17T07:04:55.544Z,46.02
2022-08-17T07:10:27.716Z,46.04
2022-08-17T07:13:14.559Z,46.04
2022-08-17T07:15:42.975Z,46.07
2022-08-17T07:18:12.148Z,46.14
2022-08-17T07:20:43.663Z,46.29
2022-08-17T07:23:40.055Z,46.26
2022-08-17T07:26:09.041Z,46.26
2022-08-17T07:28:36.577Z,46.31
2022-08-17T07:31:04.696Z,46.18
2022-08-17T07:33:34.574Z,46.65
2022-08-17T07:36:02.611Z,46.44
2022-08-17T07:38:30.820Z,46.11
2022-08-17T07:40:57.926Z,46.39
2022-08-17T07:43:26.046Z,46.59
2022-08-17T07:46:31.557Z,46.46
2022-08-17T07:49:18.882Z,46.52
2022-08-17T07:51:48.319Z,46.32
2022-08-17T07:54:15.029Z,46.71
2022-08-17T07:56:47.040Z,46.38
2022-08-17T07:59:27.231Z,46.59
2022-08-17T08:02:05.405Z,46.71
2022-08-17T08:04:59.622Z,46.54
2022-08-17T08:07:32.075Z,46.52
2022-08-17T08:10:13.060Z,46.58
2022-08-17T08:12:45.511Z,46.64
2022-08-17T08:15:20.287Z,46.67
2022-08-17T08:17:48.945Z,46.55
2022-08-17T08:20:40.823Z,46.68
2022-08-17T08:23:29.469Z,46.73
2022-08-17T08:29:22.651Z,47.30
2022-08-17T08:31:56.411Z,47.35
2022-08-17T08:35:01.628Z,48.01
2022-08-17T08:37:55.907Z,48.77
2022-08-17T08:40:31.971Z,49.03
2022-08-17T08:43:22.983Z,49.49
2022-08-17T08:46:06.221Z,49.38
2022-08-17T08:48:58.630Z,49.74
2022-08-17T08:51:55.602Z,49.79
2022-08-17T08:54:37.226Z,49.82
2022-08-17T08:57:32.893Z,49.89
2022-08-17T09:00:14.704Z,49.95
2022-08-17T09:03:07.363Z,49.50
2022-08-17T09:08:44.137Z,49.55
2022-08-17T09:11:22.439Z,49.71
2022-08-17T09:17:12.085Z,49.54
2022-08-17T09:20:05.924Z,49.72
2022-08-17T09:22:44.927Z,50.01
2022-08-17T09:25:21.689Z,49.79
2022-08-17T09:27:56.509Z,50.07
2022-08-17T09:30:36.218Z,50.24
2022-08-17T09:33:07.768Z,50.22
2022-08-17T09:35:44.421Z,50.08
2022-08-17T09:38:35.566Z,49.91
2022-08-17T09:41:25.306Z,50.20
2022-08-17T09:44:22.794Z,49.87
2022-08-17T09:46:50.292Z,50.11
2022-08-17T09:49:34.487Z,49.89
2022-08-17T09:52:14.659Z,49.68
2022-08-17T09:54:52.499Z,49.57
2022-08-17T09:57:47.430Z,49.67
2022-08-17T10:00:17.189Z,49.65
2022-08-17T10:03:02.725Z,49.56
2022-08-17T10:05:57.197Z,49.58
2022-08-17T10:08:32.660Z,49.49
2022-08-17T10:11:11.298Z,49.43
2022-08-17T10:14:36.018Z,49.19
2022-08-17T10:17:09.800Z,49.11
2022-08-17T10:19:48.753Z,49.17
2022-08-17T10:23:06.511Z,49.40
2022-08-17T10:26:12.957Z,49.10
2022-08-17T10:28:51.315Z,49.37
2022-08-17T10:31:34.830Z,49.09
2022-08-17T10:34:29.498Z,49.11
2022-08-17T10:37:09.786Z,49.31
2022-08-17T10:39:57.330Z,49.11
2022-08-17T10:42:37.541Z,49.19
2022-08-17T10:45:21.906Z,48.96
2022-08-17T10:48:06.051Z,48.99
2022-08-17T10:50:46.202Z,48.93
2022-08-17T10:53:32.651Z,49.12
2022-08-17T10:56:22.490Z,48.91
2022-08-17T10:58:58.254Z,48.87
2022-08-17T11:01:37.943Z,48.82
2022-08-17T11:04:21.333Z,48.76
2022-08-17T11:07:12.487Z,48.79
2022-08-17T11:10:06.935Z,48.72
2022-08-17T11:16:13.682Z,48.65
2022-08-17T11:19:10.179Z,48.69
2022-08-17T11:22:00.120Z,48.50
2022-08-17T11:24:39.864Z,48.54
2022-08-17T11:27:28.713Z,48.56
2022-08-17T11:30:01.916Z,48.96
2022-08-17T11:32:34.527Z,48.58
2022-08-17T11:35:22.029Z,48.40
2022-08-17T11:38:17.940Z,48.40
2022-08-17T11:40:50.200Z,48.45
2022-08-17T11:43:49.121Z,48.52
2022-08-17T11:46:55.406Z,48.66
2022-08-17T11:52:46.990Z,48.77
2022-08-17T11:55:38.201Z,48.74
2022-08-17T11:58:37.408Z,48.68
2022-08-17T12:01:28.927Z,48.73
2022-08-17T12:04:24.145Z,48.90
2022-08-17T12:07:10.326Z,48.68
2022-08-17T12:09:45.689Z,48.81
2022-08-17T12:12:22.602Z,48.81
2022-08-17T12:15:11.455Z,49.00
2022-08-17T12:20:30.079Z,49.08
2022-08-17T12:23:08.695Z,48.85
2022-08-17T12:25:47.665Z,49.07
2022-08-17T12:31:12.724Z,49.10
2022-08-17T12:33:44.413Z,49.18
2022-08-17T12:36:15.197Z,49.19
2022-08-17T12:41:43.381Z,49.05
2022-08-17T12:44:16.811Z,48.99
2022-08-17T12:47:07.645Z,49.07
2022-08-17T12:49:37.248Z,49.26
2022-08-17T12:52:36.371Z,49.11
2022-08-17T12:55:06.902Z,49.23
2022-08-17T12:57:36.369Z,49.21
2022-08-17T13:00:10.190Z,49.27
2022-08-17T13:02:53.610Z,49.33
2022-08-17T13:05:30.123Z,49.10
2022-08-17T13:07:59.847Z,49.25
2022-08-17T13:10:33.126Z,50.90
2022-08-17T13:13:06.137Z,50.74
2022-08-17T13:15:44.872Z,49.92
2022-08-17T13:18:33.823Z,49.61
2022-08-17T13:21:01.048Z,49.62
2022-08-17T13:23:29.594Z,49.76
2022-08-17T13:26:06.050Z,49.92
2022-08-17T13:28:36.086Z,49.84
2022-08-17T13:31:27.793Z,49.80
2022-08-17T13:34:13.747Z,49.57
2022-08-17T13:39:25.586Z,49.82
2022-08-17T13:41:55.404Z,49.75
2022-08-17T13:44:37.985Z,49.73
2022-08-17T13:50:21.880Z,49.50
2022-08-17T13:52:52.001Z,49.62
2022-08-17T13:55:22.672Z,49.77
2022-08-17T13:58:04.131Z,49.60
2022-08-17T14:00:36.346Z,49.74
2022-08-17T14:03:04.931Z,49.49
2022-08-17T14:05:32.482Z,49.63
2022-08-17T14:08:06.396Z,49.55
2022-08-17T14:10:36.335Z,49.50
2022-08-17T14:13:03.877Z,49.24
2022-08-17T14:15:56.154Z,49.44
2022-08-17T14:18:55.498Z,49.43
2022-08-17T14:21:08.287Z,49.06
2022-08-17T14:23:35.257Z,49.51
2022-08-17T14:26:02.205Z,49.35
2022-08-17T14:28:28.828Z,49.25
2022-08-17T14:30:55.494Z,49.06
2022-08-17T14:33:24.561Z,49.17
2022-08-17T14:35:53.510Z,48.98
2022-08-17T14:38:20.506Z,48.91
2022-08-17T14:40:48.075Z,48.83
2022-08-17T14:43:15.843Z,48.89
2022-08-17T14:45:43.287Z,48.96
2022-08-17T14:48:10.473Z,48.88
2022-08-17T14:50:41.066Z,49.02
2022-08-17T14:53:11.381Z,48.75
2022-08-17T14:55:40.486Z,48.91
2022-08-17T14:58:09.057Z,48.73
2022-08-17T15:00:36.368Z,48.84
2022-08-17T15:03:03.346Z,48.74
2022-08-17T15:05:34.117Z,48.73
2022-08-17T15:08:02.054Z,48.60
2022-08-17T15:10:30.171Z,48.71
2022-08-17T15:12:57.356Z,48.74
2022-08-17T15:15:24.989Z,48.71
2022-08-17T15:17:51.749Z,48.71
2022-08-17T15:20:24.753Z,48.60
2022-08-17T15:22:55.183Z,48.53
2022-08-17T15:25:23.377Z,48.61
2022-08-17T15:27:50.176Z,48.41
2022-08-17T15:30:17.632Z,48.60
2022-08-17T15:32:51.363Z,48.48
2022-08-17T15:35:27.311Z,48.52
2022-08-17T15:38:03.515Z,48.39
2022-08-17T15:40:36.925Z,48.39
2022-08-17T15:43:12.854Z,48.21
2022-08-17T15:45:40.062Z,48.16
2022-08-17T15:48:07.039Z,48.24
2022-08-17T15:50:33.591Z,48.35
2022-08-17T15:53:01.340Z,48.33
2022-08-17T15:55:30.133Z,47.99
2022-08-17T15:57:56.716Z,48.13
2022-08-17T16:00:28.335Z,48.18
2022-08-17T16:03:45.399Z,48.38
2022-08-17T16:05:43.513Z,48.12
2022-08-17T16:08:11.194Z,48.10
2022-08-17T16:10:38.121Z,48.10
2022-08-17T16:13:04.879Z,47.96
2022-08-17T16:15:39.731Z,47.69
2022-08-17T16:18:06.305Z,48.21
2022-08-17T16:20:32.949Z,47.74
2022-08-17T16:22:59.508Z,47.97
2022-08-17T16:25:52.122Z,48.05
2022-08-17T16:28:16.850Z,48.04
2022-08-17T16:30:43.353Z,47.68
2022-08-17T16:33:11.764Z,47.87
2022-08-17T16:35:39.221Z,47.58
2022-08-17T16:38:07.049Z,47.79
2022-08-17T16:40:36.112Z,47.97
2022-08-17T16:43:10.325Z,47.54
2022-08-17T16:45:40.629Z,47.71
2022-08-17T16:48:08.161Z,47.51
2022-08-17T16:50:35.703Z,47.53
2022-08-17T16:53:08.964Z,47.60
2022-08-17T16:55:35.926Z,47.13
2022-08-17T16:58:04.379Z,47.38
2022-08-17T17:00:33.112Z,47.38
2022-08-17T17:03:19.462Z,47.18
2022-08-17T17:06:06.551Z,47.37
2022-08-17T17:08:43.682Z,47.27
2022-08-17T17:11:34.078Z,47.28
2022-08-17T17:14:03.953Z,47.15
2022-08-17T17:16:40.705Z,47.22
2022-08-17T17:19:26.328Z,47.20
2022-08-17T17:22:28.360Z,46.97
2022-08-17T17:25:06.705Z,46.93
2022-08-17T17:27:42.674Z,47.14
2022-08-17T17:30:14.631Z,46.99
2022-08-17T17:33:23.604Z,46.79
2022-08-17T17:36:00.715Z,46.97
2022-08-17T17:38:39.187Z,46.83
2022-08-17T17:44:01.941Z,47.04
2022-08-17T17:46:39.969Z,46.74
2022-08-17T17:49:06.937Z,46.58
2022-08-17T17:52:10.030Z,46.90
2022-08-17T17:54:47.862Z,46.99
2022-08-17T17:57:24.572Z,46.79
2022-08-17T18:00:09.592Z,46.87
2022-08-17T18:02:57.522Z,46.87
2022-08-17T18:05:55.719Z,46.96
2022-08-17T18:08:35.107Z,46.87
2022-08-17T18:11:27.007Z,47.21
2022-08-17T18:17:01.330Z,46.96
2022-08-17T18:19:30.070Z,46.88
2022-08-17T18:22:13.084Z,46.96
2022-08-17T18:24:44.352Z,47.01
2022-08-17T18:27:29.483Z,47.11
2022-08-17T18:29:57.907Z,47.00
2022-08-17T18:32:40.051Z,47.00
2022-08-17T18:35:09.522Z,46.99
2022-08-17T18:37:43.467Z,47.16
2022-08-17T18:40:23.367Z,47.23
2022-08-17T18:43:05.000Z,47.15
2022-08-17T18:45:38.206Z,46.89
2022-08-17T18:48:06.661Z,47.01
2022-08-17T18:50:41.427Z,47.11
2022-08-17T18:53:33.214Z,47.43
2022-08-17T18:56:23.190Z,47.71
2022-08-17T18:59:05.671Z,47.85
2022-08-17T19:02:03.318Z,47.69
2022-08-17T19:04:59.308Z,47.87
2022-08-17T19:07:28.538Z,47.89
2022-08-17T19:10:19.900Z,48.03
2022-08-17T19:13:00.276Z,48.12
2022-08-17T19:15:42.424Z,48.12
2022-08-17T19:18:18.569Z,48.04
2022-08-17T19:20:59.299Z,47.60
2022-08-17T19:23:26.871Z,47.21
2022-08-17T19:25:58.336Z,47.64
2022-08-17T19:28:36.852Z,47.64
2022-08-17T19:31:13.987Z,47.72
2022-08-17T19:33:40.672Z,47.53
2022-08-17T19:36:38.326Z,47.52
2022-08-17T19:39:26.527Z,47.93
2022-08-17T19:42:12.587Z,47.75
2022-08-17T19:44:54.594Z,47.61
2022-08-17T19:47:54.683Z,47.72
2022-08-17T19:54:01.474Z,47.93
2022-08-17T19:56:44.151Z,47.78
2022-08-17T19:59:10.585Z,47.98
2022-08-17T20:01:51.564Z,47.78
2022-08-17T20:04:21.235Z,48.01
2022-08-17T20:06:53.138Z,47.89
2022-08-17T20:09:21.464Z,48.02
2022-08-17T20:11:56.593Z,47.90
2022-08-17T20:14:36.414Z,47.97
2022-08-17T20:17:04.355Z,48.01
2022-08-17T20:19:47.489Z,48.17
2022-08-17T20:22:30.920Z,48.01
2022-08-17T20:25:18.052Z,48.11
2022-08-17T20:28:05.876Z,47.96
2022-08-17T20:30:37.220Z,48.00
2022-08-17T20:33:08.271Z,48.16
2022-08-17T20:35:40.350Z,48.14
2022-08-17T20:38:31.684Z,48.01
2022-08-17T20:41:04.421Z,47.87
2022-08-17T20:43:34.330Z,47.90
2022-08-17T20:46:35.020Z,48.00
2022-08-17T20:49:10.918Z,48.00
2022-08-17T20:52:02.859Z,47.93
2022-08-17T20:54:41.940Z,47.87
2022-08-17T20:57:14.045Z,47.66
2022-08-17T20:59:45.026Z,47.81
2022-08-17T21:02:20.044Z,47.76
2022-08-17T21:04:54.541Z,47.93
2022-08-17T21:07:32.879Z,47.96
2022-08-17T21:10:28.204Z,47.85
2022-08-17T21:13:15.530Z,47.78
2022-08-17T21:15:42.306Z,47.68
2022-08-17T21:18:23.409Z,47.53
2022-08-17T21:21:17.641Z,47.62
2022-08-17T21:24:21.008Z,47.57
2022-08-17T21:27:24.986Z,47.44
2022-08-17T21:30:09.494Z,47.56
2022-08-17T21:32:40.511Z,47.47
2022-08-17T21:35:12.342Z,47.56
2022-08-17T21:37:48.061Z,47.26
2022-08-17T21:40:18.206Z,47.44
2022-08-17T21:42:53.761Z,47.44
2022-08-17T21:45:22.906Z,47.42
2022-08-17T21:48:06.919Z,47.37
2022-08-17T21:50:35.623Z,47.32
2022-08-17T21:53:04.072Z,47.22
2022-08-17T21:55:34.013Z,47.34
2022-08-17T21:58:22.065Z,47.12
2022-08-17T22:01:10.008Z,47.25
2022-08-17T22:03:38.525Z,47.06
2022-08-17T22:06:22.707Z,47.19
2022-08-17T22:09:12.458Z,47.12
2022-08-17T22:11:52.888Z,47.13
2022-08-17T22:14:52.247Z,47.08
2022-08-17T22:17:21.603Z,47.01
2022-08-17T22:19:52.285Z,46.92
2022-08-17T22:22:35.672Z,47.06
2022-08-17T22:25:08.479Z,46.98
2022-08-17T22:27:50.632Z,46.98
2022-08-17T22:30:28.589Z,46.76
2022-08-17T22:32:56.490Z,46.88
2022-08-17T22:35:35.821Z,46.70
2022-08-17T22:38:31.819Z,46.77
2022-08-17T22:41:15.144Z,46.63
2022-08-17T22:43:43.813Z,46.58
2022-08-17T22:46:12.443Z,46.62
2022-08-17T22:48:48.619Z,46.65
2022-08-17T22:51:20.565Z,46.52
2022-08-17T22:54:13.229Z,46.66
2022-08-17T22:57:15.283Z,46.63
2022-08-17T22:59:51.648Z,46.25
2022-08-17T23:02:24.725Z,46.38
2022-08-17T23:05:15.766Z,46.51
2022-08-17T23:07:44.578Z,46.52
2022-08-17T23:10:12.421Z,46.56
2022-08-17T23:12:39.744Z,46.50
2022-08-17T23:15:19.286Z,46.51
2022-08-17T23:17:46.427Z,46.20
2022-08-17T23:20:15.324Z,46.53
2022-08-17T23:22:51.255Z,46.35
2022-08-17T23:25:29.286Z,46.26
2022-08-17T23:27:58.430Z,46.23
2022-08-17T23:30:25.611Z,46.10
2022-08-17T23:32:54.315Z,46.23
2022-08-17T23:35:39.666Z,46.20
2022-08-17T23:38:09.486Z,46.19
2022-08-17T23:40:36.332Z,46.31
2022-08-17T23:43:06.010Z,46.09
2022-08-17T23:45:50.404Z,46.25
2022-08-17T23:48:35.454Z,46.19
2022-08-17T23:51:36.329Z,46.23
2022-08-17T23:54:11.604Z,46.17
2022-08-17T23:56:50.914Z,46.26
2022-08-17T23:59:22.448Z,46.16
